In Rescue
 
Open Full Screen Window  High Contrast Mode
Wind Gusting 00 knots
07
October 25, 2021 2:36 PM CDT
Weather Information
Wind Direction
  100 °
Wind Speed
  07 kt (8 mph)
Wind Gust
  00 kt (0 mph)
Altimeter
30.15 in
Visibility
10 SM
Temperature
08° C
46° F
Dewpoint
01° C
34° F
Humidity
62%
1hr Rain Fall
00.00 in.
24hr Rain Fall
00.00 in.
Sky Condition
Overcast @ 3,200 ft
VFR

METAR KXVG 251936Z AUTO 10007KT 10SM OVC032 08/01 A3015 RMK AO2

FAA Disclaimer: The data displayed is for advisory purposes only and is not to be used for flight planning or operations.